createdAt,value
2022-11-29T00:00:36.910Z,77.54
2022-11-29T00:05:39.264Z,77.40
2022-11-29T00:10:41.553Z,77.23
2022-11-29T00:15:44.275Z,77.68
2022-11-29T00:20:46.458Z,77.22
2022-11-29T00:25:48.777Z,77.81
2022-11-29T00:30:51.288Z,78.12
2022-11-29T00:35:53.517Z,77.60
2022-11-29T00:40:55.759Z,78.01
2022-11-29T00:45:58.036Z,78.03
2022-11-29T00:51:00.451Z,78.16
2022-11-29T00:56:03.348Z,78.20
2022-11-29T01:01:05.993Z,77.81
2022-11-29T01:06:11.425Z,78.02
2022-11-29T01:11:17.297Z,78.18
2022-11-29T01:16:19.750Z,78.27
2022-11-29T01:21:24.294Z,78.57
2022-11-29T01:26:28.313Z,78.56
2022-11-29T01:31:37.825Z,78.72
2022-11-29T01:36:40.093Z,78.52
2022-11-29T01:41:42.372Z,78.37
2022-11-29T01:46:46.507Z,78.37
2022-11-29T01:51:52.478Z,78.06
2022-11-29T01:56:54.858Z,78.38
2022-11-29T02:02:01.038Z,78.39
2022-11-29T02:07:03.627Z,78.28
2022-11-29T02:12:24.041Z,78.36
2022-11-29T02:17:45.254Z,78.31
2022-11-29T02:23:03.245Z,78.40
2022-11-29T02:28:23.993Z,78.23
2022-11-29T02:33:39.222Z,78.28
2022-11-29T02:38:59.996Z,78.30
2022-11-29T02:44:29.105Z,78.37
2022-11-29T02:49:40.133Z,78.26
2022-11-29T02:54:52.837Z,78.11
2022-11-29T03:00:08.631Z,78.28
2022-11-29T03:05:29.020Z,77.92
2022-11-29T03:10:39.433Z,77.85
2022-11-29T03:15:46.370Z,77.80
2022-11-29T03:21:16.766Z,77.78
2022-11-29T03:26:30.279Z,77.61
2022-11-29T03:31:34.472Z,77.79
2022-11-29T03:37:01.693Z,77.69
2022-11-29T03:42:08.390Z,77.69
2022-11-29T03:47:15.141Z,77.84
2022-11-29T03:52:36.100Z,77.61
2022-11-29T03:58:04.131Z,77.53
2022-11-29T04:03:24.349Z,77.76
2022-11-29T04:08:35.682Z,77.53
2022-11-29T04:13:56.492Z,77.35
2022-11-29T04:19:23.775Z,77.23
2022-11-29T04:24:50.538Z,77.27
2022-11-29T04:30:07.356Z,77.24
2022-11-29T04:35:34.702Z,77.28
2022-11-29T04:41:10.961Z,77.31
2022-11-29T04:46:13.122Z,77.34
2022-11-29T04:51:47.567Z,76.99
2022-11-29T04:56:53.357Z,77.39
2022-11-29T05:02:23.557Z,77.42
2022-11-29T05:07:44.406Z,77.26
2022-11-29T05:12:53.771Z,77.42
2022-11-29T05:18:28.901Z,77.21
2022-11-29T05:24:02.460Z,77.22
2022-11-29T05:29:16.934Z,77.28
2022-11-29T05:34:38.244Z,76.90
2022-11-29T05:39:46.521Z,77.33
2022-11-29T05:44:50.823Z,77.02
2022-11-29T05:49:57.810Z,77.10
2022-11-29T05:55:15.389Z,76.77
2022-11-29T06:00:19.143Z,76.75
2022-11-29T06:05:56.910Z,76.20
2022-11-29T06:11:13.237Z,76.31
2022-11-29T06:16:41.643Z,76.28
2022-11-29T06:22:07.339Z,76.43
2022-11-29T06:27:31.949Z,76.37
2022-11-29T06:32:57.280Z,76.38
2022-11-29T06:38:14.382Z,76.13
2022-11-29T06:43:17.429Z,76.18
2022-11-29T06:48:26.689Z,75.63
2022-11-29T06:53:47.335Z,75.63
2022-11-29T06:59:04.397Z,75.77
2022-11-29T07:04:29.682Z,75.65
2022-11-29T07:09:34.869Z,75.44
2022-11-29T07:14:37.332Z,75.24
2022-11-29T07:20:01.308Z,75.09
2022-11-29T07:25:17.709Z,74.95
2022-11-29T07:30:23.193Z,75.25
2022-11-29T07:35:44.555Z,75.26
2022-11-29T07:41:11.333Z,75.01
2022-11-29T07:46:13.700Z,75.20
2022-11-29T07:51:16.022Z,75.07
2022-11-29T07:56:18.236Z,74.89
2022-11-29T08:01:20.487Z,74.93
2022-11-29T08:06:26.790Z,74.81
2022-11-29T08:11:28.982Z,74.74
2022-11-29T08:16:31.651Z,74.73
2022-11-29T08:21:33.867Z,74.66
2022-11-29T08:26:36.064Z,74.42
2022-11-29T08:31:38.409Z,74.17
2022-11-29T08:36:40.694Z,74.28
2022-11-29T08:41:43.246Z,74.22
2022-11-29T08:47:09.744Z,74.13
2022-11-29T08:52:31.510Z,74.34
2022-11-29T08:57:42.063Z,74.18
2022-11-29T09:02:44.681Z,73.93
2022-11-29T09:07:47.220Z,74.20
2022-11-29T09:12:50.814Z,74.00
2022-11-29T09:17:53.004Z,74.32
2022-11-29T09:22:55.299Z,74.06
2022-11-29T09:28:03.081Z,73.72
2022-11-29T09:33:05.590Z,73.68
2022-11-29T09:38:07.808Z,73.19
2022-11-29T09:43:17.143Z,73.19
2022-11-29T09:48:32.913Z,73.07
2022-11-29T09:53:47.308Z,73.33
2022-11-29T09:59:00.915Z,72.82
2022-11-29T10:04:05.917Z,73.29
2022-11-29T10:09:23.270Z,73.24
2022-11-29T10:14:31.515Z,72.82
2022-11-29T10:20:12.192Z,72.68
2022-11-29T10:25:23.073Z,72.98
2022-11-29T10:30:25.359Z,72.93
2022-11-29T10:35:27.687Z,72.84
2022-11-29T10:40:35.316Z,72.38
2022-11-29T10:45:43.929Z,72.45
2022-11-29T10:50:48.987Z,72.61
2022-11-29T10:56:13.180Z,72.08
2022-11-29T11:01:17.415Z,72.68
2022-11-29T11:06:21.677Z,72.63
2022-11-29T11:11:29.843Z,72.43
2022-11-29T11:16:37.594Z,72.37
2022-11-29T11:21:40.083Z,72.54
2022-11-29T11:26:44.702Z,72.57
2022-11-29T11:31:58.420Z,71.72
2022-11-29T11:37:16.057Z,71.83
2022-11-29T11:42:43.241Z,72.25
2022-11-29T11:47:54.324Z,72.30
2022-11-29T11:52:59.622Z,72.26
2022-11-29T11:58:09.763Z,72.10
2022-11-29T12:03:33.520Z,71.60
2022-11-29T12:08:36.830Z,72.12
2022-11-29T12:13:42.087Z,72.10
2022-11-29T12:18:50.717Z,71.93
2022-11-29T12:24:20.662Z,71.79
2022-11-29T12:29:23.574Z,71.91
2022-11-29T12:34:48.158Z,71.71
2022-11-29T12:40:16.885Z,71.55
2022-11-29T12:45:34.512Z,71.99
2022-11-29T12:51:05.302Z,71.55
2022-11-29T12:56:23.853Z,71.50
2022-11-29T13:01:58.997Z,71.67
2022-11-29T13:07:15.277Z,71.47
2022-11-29T13:12:42.582Z,71.53
2022-11-29T13:18:03.463Z,72.07
2022-11-29T13:23:45.939Z,71.87
2022-11-29T13:28:48.747Z,72.01
2022-11-29T13:34:22.629Z,71.94
2022-11-29T13:39:49.816Z,71.78
2022-11-29T13:45:03.650Z,72.04
2022-11-29T13:50:41.636Z,71.92
2022-11-29T13:55:46.919Z,72.06
2022-11-29T14:00:50.837Z,72.38
2022-11-29T14:06:03.379Z,72.08
2022-11-29T14:11:14.975Z,72.01
2022-11-29T14:16:21.758Z,72.19
2022-11-29T14:21:24.048Z,72.36
2022-11-29T14:26:28.889Z,72.47
2022-11-29T14:31:50.936Z,72.19
2022-11-29T14:37:20.014Z,72.24
2022-11-29T14:42:29.919Z,72.17
2022-11-29T14:47:38.465Z,72.41
2022-11-29T14:52:54.041Z,72.44
2022-11-29T14:58:03.933Z,72.56
2022-11-29T15:03:29.329Z,72.22
2022-11-29T15:08:42.431Z,72.31
2022-11-29T15:14:12.943Z,72.07
2022-11-29T15:19:33.881Z,72.24
2022-11-29T15:24:57.921Z,72.34
2022-11-29T15:30:18.604Z,72.35
2022-11-29T15:35:21.127Z,72.49
2022-11-29T15:40:34.779Z,72.38
2022-11-29T15:45:38.870Z,72.77
2022-11-29T15:50:46.020Z,72.80
2022-11-29T15:55:50.400Z,72.61
2022-11-29T16:00:53.280Z,72.83
2022-11-29T16:06:21.666Z,72.58
2022-11-29T16:11:25.771Z,72.81
2022-11-29T16:16:28.971Z,72.78
2022-11-29T16:21:32.728Z,72.71
2022-11-29T16:26:38.623Z,72.95
2022-11-29T16:31:40.843Z,72.92
2022-11-29T16:36:43.134Z,73.08
2022-11-29T16:42:05.818Z,72.97
2022-11-29T16:47:28.731Z,72.96
2022-11-29T16:52:33.818Z,73.26
2022-11-29T16:57:36.503Z,73.19
2022-11-29T17:02:38.878Z,72.93
2022-11-29T17:07:41.579Z,72.85
2022-11-29T17:12:47.974Z,73.06
2022-11-29T17:17:50.895Z,73.05
2022-11-29T17:23:00.032Z,73.06
2022-11-29T17:28:03.370Z,73.07
2022-11-29T17:33:05.821Z,72.85
2022-11-29T17:38:08.315Z,73.06
2022-11-29T17:43:13.934Z,72.82
2022-11-29T17:48:18.918Z,72.98
2022-11-29T17:53:22.522Z,73.02
2022-11-29T17:58:25.859Z,72.71
2022-11-29T18:03:28.215Z,72.85
2022-11-29T18:08:30.531Z,72.61
2022-11-29T18:13:32.926Z,72.64
2022-11-29T18:18:37.606Z,72.70
2022-11-29T18:23:43.630Z,72.48
2022-11-29T18:28:46.708Z,72.50
2022-11-29T18:33:52.593Z,72.46
2022-11-29T18:39:23.322Z,72.44
2022-11-29T18:44:36.962Z,72.50
2022-11-29T18:49:42.181Z,72.59
2022-11-29T18:54:50.691Z,72.36
2022-11-29T18:59:53.435Z,72.59
2022-11-29T19:04:56.259Z,72.64
2022-11-29T19:09:59.172Z,72.56
2022-11-29T19:15:10.519Z,72.30
2022-11-29T19:20:13.879Z,72.52
2022-11-29T19:25:16.172Z,72.39
2022-11-29T19:30:18.562Z,72.39
2022-11-29T19:35:20.747Z,72.66
2022-11-29T19:40:22.975Z,72.40
2022-11-29T19:45:25.411Z,72.29
2022-11-29T19:50:28.755Z,72.55
2022-11-29T19:55:30.937Z,72.30
2022-11-29T20:00:33.152Z,72.11
2022-11-29T20:05:35.302Z,72.28
2022-11-29T20:10:37.425Z,72.46
2022-11-29T20:15:39.631Z,72.51
2022-11-29T20:20:41.973Z,72.27
2022-11-29T20:25:49.462Z,72.47
2022-11-29T20:30:52.675Z,72.40
2022-11-29T20:36:04.211Z,72.01
2022-11-29T20:41:15.960Z,72.15
2022-11-29T20:46:18.409Z,72.20
2022-11-29T20:51:29.237Z,72.14
2022-11-29T20:56:33.096Z,72.50
2022-11-29T21:01:35.349Z,72.26
2022-11-29T21:06:38.654Z,71.84
2022-11-29T21:11:41.138Z,72.26
2022-11-29T21:16:43.528Z,71.86
2022-11-29T21:22:02.357Z,72.17
2022-11-29T21:27:04.954Z,71.99
2022-11-29T21:32:07.518Z,72.25
2022-11-29T21:37:09.624Z,71.99
2022-11-29T21:42:12.521Z,71.86
2022-11-29T21:47:14.972Z,71.93
2022-11-29T21:52:22.245Z,71.72
2022-11-29T21:57:25.015Z,71.99
2022-11-29T22:02:27.608Z,72.06
2022-11-29T22:07:29.995Z,71.73
2022-11-29T22:12:34.821Z,71.97
2022-11-29T22:17:37.392Z,71.83
2022-11-29T22:22:39.673Z,71.72
2022-11-29T22:27:41.844Z,71.76
2022-11-29T22:32:44.044Z,71.90
2022-11-29T22:37:46.232Z,71.98
2022-11-29T22:42:48.372Z,71.80
2022-11-29T22:47:50.581Z,71.76
2022-11-29T22:52:53.964Z,71.86
2022-11-29T22:57:56.207Z,71.79
2022-11-29T23:02:58.367Z,71.66
2022-11-29T23:08:00.857Z,71.85
2022-11-29T23:13:03.259Z,72.10
2022-11-29T23:18:05.422Z,71.61
2022-11-29T23:23:07.703Z,71.83
2022-11-29T23:28:10.020Z,71.90
2022-11-29T23:33:12.272Z,71.79
2022-11-29T23:38:15.373Z,71.92
2022-11-29T23:43:17.510Z,71.85
2022-11-29T23:48:19.742Z,72.04
2022-11-29T23:53:21.989Z,71.97
2022-11-29T23:58:24.291Z,71.81
